PWSweather.com
Personal Weather Stations
Station Observations
KNCCHINA3
Red Tractor Trail, China Grove, NC 28023

Red Tractor TrailChina Grove, NC 28023

Lat: 35.59751, Lon: -80.60201

Elevation: 800

Station Type: Oregon Scientific WMR 968

http://www.joesweathergarage.com

High Low Average
Temperature 97.5°F36.4°F 61.2°F16.2°F 77.9°F25.5°F
Dew Point 77.6°F25.3°F 61.2°F16.2°F 69.5°F20.8°F
Winds 6.4 mph S10.3 mph S Calm Calm 1.5 mph 2.4 mph
Wind Gusts 11.2 mph18.0 mph -- 3.0 mph4.8 mph
Humidity 100% 41% 79%
Pressure 30.12 in1020.00 in 29.85 in1010.80 in -
Precipitation 0.00 in0.00 in - -
Hour Temp Dew Point Humidity Winds Wind Gusts Pressure Precip Precip Rate Daily Precip Total
12:00 AM 73.5°F23.1°C 71.8°F22.1°C 95% Calm Calm -- 30.00 in1015.9 mb 0.00 in0.0 mm 0.00 in0.0 mm 0.00 in0.0 mm
12:05 AM 73.5°F23.1°C 71.8°F22.1°C 95% Calm Calm -- 30.00 in1015.9 mb 0.00 in0.0 mm 0.00 in0.0 mm 0.00 in0.0 mm
12:10 AM 73.5°F23.1°C 71.8°F22.1°C 95% Calm Calm -- 30.00 in1015.9 mb 0.00 in0.0 mm 0.00 in0.0 mm 0.00 in0.0 mm
12:15 AM 73.5°F23.1°C 71.5°F21.9°C 94% Calm Calm -- 30.00 in1015.9 mb 0.00 in0.0 mm 0.00 in0.0 mm 0.00 in0.0 mm
12:20 AM 73.5°F23.1°C 71.5°F21.9°C 94% Calm Calm -- 30.00 in1015.9 mb 0.00 in0.0 mm 0.00 in0.0 mm 0.00 in0.0 mm
12:25 AM 73.5°F23.1°C 71.5°F21.9°C 94% Calm Calm -- 30.00 in1015.9 mb 0.00 in0.0 mm 0.00 in0.0 mm 0.00 in0.0 mm
12:30 AM 73.3°F22.9°C 71.3°F21.8°C 94% Calm Calm -- 30.00 in1015.9 mb 0.00 in0.0 mm 0.00 in0.0 mm 0.00 in0.0 mm
12:32 AM 63.7°F17.6°C 63.7°F17.6°C 100% 3.2 mph SW5.1 kmh SW 7.6 mph12.2 kmh 30.12 in1020.0 mb 0.00 in0.0 mm 0.00 in0.0 mm 0.00 in0.0 mm
12:35 AM 73.3°F22.9°C 71.6°F22.0°C 95% Calm Calm -- 30.00 in1015.9 mb 0.00 in0.0 mm 0.00 in0.0 mm 0.00 in0.0 mm
12:40 AM 73.3°F22.9°C 71.6°F22.0°C 95% Calm Calm -- 30.00 in1015.9 mb 0.00 in0.0 mm 0.00 in0.0 mm 0.00 in0.0 mm
12:45 AM 73.1°F22.8°C 71.4°F21.9°C 95% Calm Calm -- 30.00 in1015.9 mb 0.00 in0.0 mm 0.00 in0.0 mm 0.00 in0.0 mm
12:51 AM 73.1°F22.8°C 71.4°F21.9°C 95% Calm Calm -- 30.00 in1015.9 mb 0.00 in0.0 mm 0.00 in0.0 mm 0.00 in0.0 mm
12:56 AM 73.1°F22.8°C 71.4°F21.9°C 95% Calm Calm -- 30.00 in1015.9 mb 0.00 in0.0 mm 0.00 in0.0 mm 0.00 in0.0 mm
01:01 AM 73.1°F22.8°C 71.4°F21.9°C 95% Calm Calm -- 30.00 in1015.9 mb 0.00 in0.0 mm 0.00 in0.0 mm 0.00 in0.0 mm
01:06 AM 73.1°F22.8°C 71.4°F21.9°C 95% Calm Calm -- 30.00 in1015.9 mb 0.00 in0.0 mm 0.00 in0.0 mm 0.00 in0.0 mm
01:12 AM 73.1°F22.8°C 71.4°F21.9°C 95% Calm Calm -- 30.00 in1015.9 mb 0.00 in0.0 mm 0.00 in0.0 mm 0.00 in0.0 mm
01:17 AM 73.1°F22.8°C 71.4°F21.9°C 95% Calm Calm -- 30.00 in1015.9 mb 0.00 in0.0 mm 0.00 in0.0 mm 0.00 in0.0 mm
01:22 AM 72.9°F22.7°C 71.2°F21.8°C 95% Calm Calm -- 30.00 in1015.9 mb 0.00 in0.0 mm 0.00 in0.0 mm 0.00 in0.0 mm
01:27 AM 72.9°F22.7°C 71.2°F21.8°C 95% Calm Calm -- 30.00 in1015.9 mb 0.00 in0.0 mm 0.00 in0.0 mm 0.00 in0.0 mm
01:32 AM 72.9°F22.7°C 71.2°F21.8°C 95% Calm Calm -- 30.00 in1015.9 mb 0.00 in0.0 mm 0.00 in0.0 mm 0.00 in0.0 mm
01:37 AM 72.9°F22.7°C 71.2°F21.8°C 95% Calm Calm -- 30.00 in1015.9 mb 0.00 in0.0 mm 0.00 in0.0 mm 0.00 in0.0 mm
01:38 AM 63.5°F17.5°C 63.5°F17.5°C 100% 3.8 mph WSW6.1 kmh WSW 6.2 mph10.0 kmh 30.12 in1020.0 mb 0.00 in0.0 mm 0.00 in0.0 mm 0.00 in0.0 mm
01:42 AM 72.7°F22.6°C 71.1°F21.7°C 95% Calm Calm -- 30.00 in1015.9 mb 0.00 in0.0 mm 0.00 in0.0 mm 0.00 in0.0 mm
01:47 AM 72.6°F22.6°C 71.0°F21.7°C 95% Calm Calm -- 30.00 in1015.9 mb 0.00 in0.0 mm 0.00 in0.0 mm 0.00 in0.0 mm
01:54 AM 72.4°F22.4°C 70.8°F21.6°C 95% Calm Calm -- 30.00 in1015.9 mb 0.00 in0.0 mm 0.00 in0.0 mm 0.00 in0.0 mm
01:59 AM 72.2°F22.3°C 70.6°F21.4°C 95% Calm Calm -- 30.00 in1015.9 mb 0.00 in0.0 mm 0.00 in0.0 mm 0.00 in0.0 mm
02:04 AM 72.2°F22.3°C 70.6°F21.4°C 95% Calm Calm -- 30.00 in1015.9 mb 0.00 in0.0 mm 0.00 in0.0 mm 0.00 in0.0 mm
02:09 AM 72.2°F22.3°C 70.6°F21.4°C 95% Calm Calm -- 30.00 in1015.9 mb 0.00 in0.0 mm 0.00 in0.0 mm 0.00 in0.0 mm
02:15 AM 72.2°F22.3°C 70.6°F21.4°C 95% Calm Calm -- 29.97 in1014.9 mb 0.00 in0.0 mm 0.00 in0.0 mm 0.00 in0.0 mm
02:20 AM 72.2°F22.3°C 70.6°F21.4°C 95% Calm Calm -- 29.97 in1014.9 mb 0.00 in0.0 mm 0.00 in0.0 mm 0.00 in0.0 mm
02:25 AM 72.4°F22.4°C 70.8°F21.6°C 95% Calm Calm -- 29.97 in1014.9 mb 0.00 in0.0 mm 0.00 in0.0 mm 0.00 in0.0 mm
02:30 AM 72.4°F22.4°C 70.8°F21.6°C 95% Calm Calm -- 29.97 in1014.9 mb 0.00 in0.0 mm 0.00 in0.0 mm 0.00 in0.0 mm
02:36 AM 72.6°F22.6°C 71.0°F21.7°C 95% Calm Calm -- 29.97 in1014.9 mb 0.00 in0.0 mm 0.00 in0.0 mm 0.00 in0.0 mm
02:39 AM 63.5°F17.5°C 63.5°F17.5°C 100% 4.2 mph WNW6.8 kmh WNW 6.2 mph10.0 kmh 30.12 in1020.0 mb 0.00 in0.0 mm 0.00 in0.0 mm 0.00 in0.0 mm
02:41 AM 72.4°F22.4°C 70.5°F21.4°C 94% Calm Calm -- 29.97 in1014.9 mb 0.00 in0.0 mm 0.00 in0.0 mm 0.00 in0.0 mm
02:46 AM 72.6°F22.6°C 70.6°F21.4°C 94% Calm Calm -- 29.97 in1014.9 mb 0.00 in0.0 mm 0.00 in0.0 mm 0.00 in0.0 mm
02:51 AM 72.4°F22.4°C 70.5°F21.4°C 94% Calm Calm -- 29.97 in1014.9 mb 0.00 in0.0 mm 0.00 in0.0 mm 0.00 in0.0 mm
02:56 AM 72.4°F22.4°C 70.5°F21.4°C 94% Calm Calm -- 29.97 in1014.9 mb 0.00 in0.0 mm 0.00 in0.0 mm 0.00 in0.0 mm
03:01 AM 72.2°F22.3°C 70.3°F21.3°C 94% Calm Calm -- 29.97 in1014.9 mb 0.00 in0.0 mm 0.00 in0.0 mm 0.00 in0.0 mm
03:06 AM 72.0°F22.2°C 70.1°F21.2°C 94% Calm Calm -- 29.97 in1014.9 mb 0.00 in0.0 mm 0.00 in0.0 mm 0.00 in0.0 mm
03:07 AM 63.5°F17.5°C 63.5°F17.5°C 100% 4.7 mph WSW7.6 kmh WSW 6.2 mph10.0 kmh 30.12 in1020.0 mb 0.00 in0.0 mm 0.00 in0.0 mm 0.00 in0.0 mm
03:11 AM 72.0°F22.2°C 70.1°F21.2°C 94% Calm Calm -- 29.97 in1014.9 mb 0.00 in0.0 mm 0.00 in0.0 mm 0.00 in0.0 mm
03:14 AM 63.5°F17.5°C 63.5°F17.5°C 100% 3.9 mph WSW6.3 kmh WSW 7.2 mph11.6 kmh 30.12 in1020.0 mb 0.00 in0.0 mm 0.00 in0.0 mm 0.00 in0.0 mm
03:16 AM 71.8°F22.1°C 69.9°F21.1°C 94% Calm Calm -- 29.97 in1014.9 mb 0.00 in0.0 mm 0.00 in0.0 mm 0.00 in0.0 mm
03:21 AM 71.7°F22.1°C 69.8°F21.0°C 94% Calm Calm -- 29.97 in1014.9 mb 0.00 in0.0 mm 0.00 in0.0 mm 0.00 in0.0 mm
03:25 AM 63.3°F17.4°C 63.3°F17.4°C 100% 3.5 mph SSW5.6 kmh SSW 5.0 mph8.0 kmh 30.09 in1019.0 mb 0.00 in0.0 mm 0.00 in0.0 mm 0.00 in0.0 mm
03:27 AM 71.6°F22.0°C 69.6°F20.9°C 94% Calm Calm -- 29.97 in1014.9 mb 0.00 in0.0 mm 0.00 in0.0 mm 0.00 in0.0 mm
03:32 AM 71.4°F21.9°C 69.4°F20.8°C 94% Calm Calm -- 29.97 in1014.9 mb 0.00 in0.0 mm 0.00 in0.0 mm 0.00 in0.0 mm
03:37 AM 71.6°F22.0°C 69.6°F20.9°C 94% Calm Calm -- 29.97 in1014.9 mb 0.00 in0.0 mm 0.00 in0.0 mm 0.00 in0.0 mm
03:42 AM 71.4°F21.9°C 69.7°F20.9°C 95% Calm Calm -- 29.97 in1014.9 mb 0.00 in0.0 mm 0.00 in0.0 mm 0.00 in0.0 mm
03:47 AM 71.2°F21.8°C 69.5°F20.8°C 95% Calm Calm -- 29.97 in1014.9 mb 0.00 in0.0 mm 0.00 in0.0 mm 0.00 in0.0 mm
03:52 AM 71.0°F21.7°C 69.7°F20.9°C 96% Calm Calm -- 29.97 in1014.9 mb 0.00 in0.0 mm 0.00 in0.0 mm 0.00 in0.0 mm
03:57 AM 63.3°F17.4°C 63.3°F17.4°C 100% 3.2 mph SSE5.1 kmh SSE 5.8 mph9.3 kmh 30.09 in1019.0 mb 0.00 in0.0 mm 0.00 in0.0 mm 0.00 in0.0 mm
04:02 AM 70.9°F21.6°C 69.6°F20.9°C 96% Calm Calm -- 29.94 in1013.9 mb 0.00 in0.0 mm 0.00 in0.0 mm 0.00 in0.0 mm
04:08 AM 70.7°F21.5°C 69.4°F20.8°C 96% Calm Calm -- 29.94 in1013.9 mb 0.00 in0.0 mm 0.00 in0.0 mm 0.00 in0.0 mm
04:12 AM 63.1°F17.3°C 63.1°F17.3°C 100% 2.9 mph SW4.7 kmh SW 5.4 mph8.7 kmh 30.09 in1019.0 mb 0.00 in0.0 mm 0.00 in0.0 mm 0.00 in0.0 mm
04:13 AM 70.5°F21.4°C 69.2°F20.7°C 96% Calm Calm -- 29.94 in1013.9 mb 0.00 in0.0 mm 0.00 in0.0 mm 0.00 in0.0 mm
04:15 AM 63.1°F17.3°C 63.1°F17.3°C 100% 2.5 mph SSW4.0 kmh SSW 6.2 mph10.0 kmh 30.09 in1019.0 mb 0.00 in0.0 mm 0.00 in0.0 mm 0.00 in0.0 mm
04:18 AM 70.5°F21.4°C 69.2°F20.7°C 96% Calm Calm -- 29.97 in1014.9 mb 0.00 in0.0 mm 0.00 in0.0 mm 0.00 in0.0 mm
04:20 AM 63.1°F17.3°C 63.1°F17.3°C 100% 3.6 mph SW5.8 kmh SW 5.8 mph9.3 kmh 30.09 in1019.0 mb 0.00 in0.0 mm 0.00 in0.0 mm 0.00 in0.0 mm
04:23 AM 70.5°F21.4°C 69.5°F20.8°C 97% Calm Calm -- 29.97 in1014.9 mb 0.00 in0.0 mm 0.00 in0.0 mm 0.00 in0.0 mm
04:29 AM 70.3°F21.3°C 69.3°F20.7°C 97% Calm Calm -- 29.97 in1014.9 mb 0.00 in0.0 mm 0.00 in0.0 mm 0.00 in0.0 mm
04:32 AM 63.1°F17.3°C 63.1°F17.3°C 100% 3.4 mph WNW5.5 kmh WNW 5.4 mph8.7 kmh 30.06 in1017.9 mb 0.00 in0.0 mm 0.00 in0.0 mm 0.00 in0.0 mm
04:34 AM 70.3°F21.3°C 69.3°F20.7°C 97% Calm Calm -- 29.97 in1014.9 mb 0.00 in0.0 mm 0.00 in0.0 mm 0.00 in0.0 mm
04:39 AM 70.3°F21.3°C 69.3°F20.7°C 97% Calm Calm -- 29.97 in1014.9 mb 0.00 in0.0 mm 0.00 in0.0 mm 0.00 in0.0 mm
04:44 AM 70.1°F21.2°C 69.1°F20.6°C 97% Calm Calm -- 29.97 in1014.9 mb 0.00 in0.0 mm 0.00 in0.0 mm 0.00 in0.0 mm
04:49 AM 70.0°F21.1°C 69.0°F20.6°C 97% Calm Calm -- 29.94 in1013.9 mb 0.00 in0.0 mm 0.00 in0.0 mm 0.00 in0.0 mm
04:50 AM 63.0°F17.2°C 63.0°F17.2°C 100% 3.2 mph W5.1 kmh W 5.0 mph8.0 kmh 30.06 in1017.9 mb 0.00 in0.0 mm 0.00 in0.0 mm 0.00 in0.0 mm
04:54 AM 70.0°F21.1°C 69.0°F20.6°C 97% Calm Calm -- 29.94 in1013.9 mb 0.00 in0.0 mm 0.00 in0.0 mm 0.00 in0.0 mm
04:58 AM 63.0°F17.2°C 63.0°F17.2°C 100% 3.9 mph WSW6.3 kmh WSW 5.4 mph8.7 kmh 30.09 in1019.0 mb 0.00 in0.0 mm 0.00 in0.0 mm 0.00 in0.0 mm
04:59 AM 69.8°F21.0°C 68.8°F20.4°C 97% Calm Calm -- 29.94 in1013.9 mb 0.00 in0.0 mm 0.00 in0.0 mm 0.00 in0.0 mm
05:04 AM 69.8°F21.0°C 68.8°F20.4°C 97% Calm Calm -- 29.97 in1014.9 mb 0.00 in0.0 mm 0.00 in0.0 mm 0.00 in0.0 mm
05:05 AM 63.0°F17.2°C 63.0°F17.2°C 100% 2.5 mph SSW4.0 kmh SSW 5.4 mph8.7 kmh 30.09 in1019.0 mb 0.00 in0.0 mm 0.00 in0.0 mm 0.00 in0.0 mm
05:07 AM 63.0°F17.2°C 63.0°F17.2°C 100% 2.4 mph S3.9 kmh S 5.0 mph8.0 kmh 30.09 in1019.0 mb 0.00 in0.0 mm 0.00 in0.0 mm 0.00 in0.0 mm
05:09 AM 69.7°F20.9°C 69.0°F20.6°C 98% Calm Calm -- 29.97 in1014.9 mb 0.00 in0.0 mm 0.00 in0.0 mm 0.00 in0.0 mm
05:13 AM 63.0°F17.2°C 63.0°F17.2°C 100% 3.4 mph SW5.5 kmh SW 5.4 mph8.7 kmh 30.06 in1017.9 mb 0.00 in0.0 mm 0.00 in0.0 mm 0.00 in0.0 mm
05:14 AM 69.7°F20.9°C 69.0°F20.6°C 98% Calm Calm -- 29.97 in1014.9 mb 0.00 in0.0 mm 0.00 in0.0 mm 0.00 in0.0 mm
05:20 AM 69.7°F20.9°C 69.0°F20.6°C 98% Calm Calm -- 29.97 in1014.9 mb 0.00 in0.0 mm 0.00 in0.0 mm 0.00 in0.0 mm
05:25 AM 69.5°F20.8°C 68.8°F20.4°C 98% Calm Calm -- 29.97 in1014.9 mb 0.00 in0.0 mm 0.00 in0.0 mm 0.00 in0.0 mm
05:31 AM 69.5°F20.8°C 69.1°F20.6°C 99% Calm Calm -- 29.97 in1014.9 mb 0.00 in0.0 mm 0.00 in0.0 mm 0.00 in0.0 mm
05:36 AM 69.3°F20.7°C 68.9°F20.5°C 99% Calm Calm -- 29.97 in1014.9 mb 0.00 in0.0 mm 0.00 in0.0 mm 0.00 in0.0 mm
05:41 AM 69.2°F20.7°C 68.8°F20.4°C 99% Calm Calm -- 29.97 in1014.9 mb 0.00 in0.0 mm 0.00 in0.0 mm 0.00 in0.0 mm
05:46 AM 69.2°F20.7°C 68.8°F20.4°C 99% Calm Calm -- 29.97 in1014.9 mb 0.00 in0.0 mm 0.00 in0.0 mm 0.00 in0.0 mm
05:52 AM 69.0°F20.6°C 68.6°F20.3°C 99% Calm Calm -- 29.97 in1014.9 mb 0.00 in0.0 mm 0.00 in0.0 mm 0.00 in0.0 mm
05:57 AM 69.0°F20.6°C 68.6°F20.3°C 99% Calm Calm -- 29.97 in1014.9 mb 0.00 in0.0 mm 0.00 in0.0 mm 0.00 in0.0 mm
06:04 AM 69.0°F20.6°C 68.6°F20.3°C 99% Calm Calm -- 29.97 in1014.9 mb 0.00 in0.0 mm 0.00 in0.0 mm 0.00 in0.0 mm
06:09 AM 69.0°F20.6°C 68.6°F20.3°C 99% Calm Calm -- 29.97 in1014.9 mb 0.00 in0.0 mm 0.00 in0.0 mm 0.00 in0.0 mm
06:14 AM 69.0°F20.6°C 68.6°F20.3°C 99% Calm Calm -- 29.97 in1014.9 mb 0.00 in0.0 mm 0.00 in0.0 mm 0.00 in0.0 mm
06:19 AM 69.0°F20.6°C 68.6°F20.3°C 99% Calm Calm -- 29.97 in1014.9 mb 0.00 in0.0 mm 0.00 in0.0 mm 0.00 in0.0 mm
06:25 AM 68.8°F20.4°C 68.4°F20.2°C 99% Calm Calm -- 29.97 in1014.9 mb 0.00 in0.0 mm 0.00 in0.0 mm 0.00 in0.0 mm
06:30 AM 68.8°F20.4°C 68.4°F20.2°C 99% Calm Calm -- 29.97 in1014.9 mb 0.00 in0.0 mm 0.00 in0.0 mm 0.00 in0.0 mm
06:35 AM 69.0°F20.6°C 68.6°F20.3°C 99% Calm Calm -- 29.97 in1014.9 mb 0.00 in0.0 mm 0.00 in0.0 mm 0.00 in0.0 mm
06:40 AM 69.0°F20.6°C 68.6°F20.3°C 99% Calm Calm -- 29.97 in1014.9 mb 0.00 in0.0 mm 0.00 in0.0 mm 0.00 in0.0 mm
06:45 AM 69.2°F20.7°C 68.8°F20.4°C 99% Calm Calm -- 30.00 in1015.9 mb 0.00 in0.0 mm 0.00 in0.0 mm 0.00 in0.0 mm
06:50 AM 69.2°F20.7°C 68.8°F20.4°C 99% Calm Calm -- 30.00 in1015.9 mb 0.00 in0.0 mm 0.00 in0.0 mm 0.00 in0.0 mm
06:55 AM 69.3°F20.7°C 68.9°F20.5°C 99% Calm Calm -- 30.00 in1015.9 mb 0.00 in0.0 mm 0.00 in0.0 mm 0.00 in0.0 mm
07:00 AM 69.7°F20.9°C 69.3°F20.7°C 99% Calm Calm -- 30.00 in1015.9 mb 0.00 in0.0 mm 0.00 in0.0 mm 0.00 in0.0 mm
07:06 AM 69.8°F21.0°C 69.5°F20.8°C 99% Calm Calm -- 30.00 in1015.9 mb 0.00 in0.0 mm 0.00 in0.0 mm 0.00 in0.0 mm
07:10 AM 70.1°F21.2°C 69.7°F20.9°C 99% Calm Calm -- 30.00 in1015.9 mb 0.00 in0.0 mm 0.00 in0.0 mm 0.00 in0.0 mm
07:16 AM 70.5°F21.4°C 70.1°F21.2°C 99% Calm Calm -- 29.97 in1014.9 mb 0.00 in0.0 mm 0.00 in0.0 mm 0.00 in0.0 mm
07:21 AM 70.9°F21.6°C 70.5°F21.4°C 99% Calm Calm -- 29.97 in1014.9 mb 0.00 in0.0 mm 0.00 in0.0 mm 0.00 in0.0 mm
07:26 AM 71.2°F21.8°C 70.8°F21.6°C 99% Calm Calm -- 29.97 in1014.9 mb 0.00 in0.0 mm 0.00 in0.0 mm 0.00 in0.0 mm
07:31 AM 71.6°F22.0°C 70.9°F21.6°C 98% Calm Calm -- 30.00 in1015.9 mb 0.00 in0.0 mm 0.00 in0.0 mm 0.00 in0.0 mm
07:36 AM 72.0°F22.2°C 71.3°F21.8°C 98% Calm Calm -- 30.00 in1015.9 mb 0.00 in0.0 mm 0.00 in0.0 mm 0.00 in0.0 mm
07:41 AM 72.4°F22.4°C 71.7°F22.1°C 98% Calm Calm -- 30.00 in1015.9 mb 0.00 in0.0 mm 0.00 in0.0 mm 0.00 in0.0 mm
07:46 AM 72.7°F22.6°C 71.7°F22.1°C 97% Calm Calm -- 30.00 in1015.9 mb 0.00 in0.0 mm 0.00 in0.0 mm 0.00 in0.0 mm
07:51 AM 72.9°F22.7°C 71.9°F22.2°C 97% Calm Calm -- 30.00 in1015.9 mb 0.00 in0.0 mm 0.00 in0.0 mm 0.00 in0.0 mm
07:56 AM 73.3°F22.9°C 71.9°F22.2°C 96% Calm Calm -- 30.00 in1015.9 mb 0.00 in0.0 mm 0.00 in0.0 mm 0.00 in0.0 mm
08:01 AM 73.5°F23.1°C 72.1°F22.3°C 96% Calm Calm -- 30.00 in1015.9 mb 0.00 in0.0 mm 0.00 in0.0 mm 0.00 in0.0 mm
08:06 AM 73.7°F23.2°C 72.4°F22.4°C 96% Calm Calm -- 30.00 in1015.9 mb 0.00 in0.0 mm 0.00 in0.0 mm 0.00 in0.0 mm
08:11 AM 73.9°F23.3°C 72.3°F22.4°C 95% Calm Calm -- 30.00 in1015.9 mb 0.00 in0.0 mm 0.00 in0.0 mm 0.00 in0.0 mm
08:16 AM 73.7°F23.2°C 72.1°F22.3°C 95% Calm Calm -- 30.03 in1016.9 mb 0.00 in0.0 mm 0.00 in0.0 mm 0.00 in0.0 mm
08:21 AM 73.7°F23.2°C 72.1°F22.3°C 95% Calm Calm -- 30.03 in1016.9 mb 0.00 in0.0 mm 0.00 in0.0 mm 0.00 in0.0 mm
08:26 AM 73.9°F23.3°C 72.3°F22.4°C 95% Calm Calm -- 30.03 in1016.9 mb 0.00 in0.0 mm 0.00 in0.0 mm 0.00 in0.0 mm
08:31 AM 74.3°F23.5°C 72.7°F22.6°C 95% Calm Calm -- 30.03 in1016.9 mb 0.00 in0.0 mm 0.00 in0.0 mm 0.00 in0.0 mm
08:37 AM 74.8°F23.8°C 72.8°F22.7°C 94% Calm Calm -- 30.03 in1016.9 mb 0.00 in0.0 mm 0.00 in0.0 mm 0.00 in0.0 mm
08:42 AM 75.0°F23.9°C 73.0°F22.8°C 94% Calm Calm -- 30.03 in1016.9 mb 0.00 in0.0 mm 0.00 in0.0 mm 0.00 in0.0 mm
08:46 AM 62.8°F17.1°C 62.8°F17.1°C 100% 3.2 mph SSW5.1 kmh SSW 5.0 mph8.0 kmh 30.06 in1017.9 mb 0.00 in0.0 mm 0.00 in0.0 mm 0.00 in0.0 mm
08:48 AM 75.3°F24.1°C 73.0°F22.8°C 93% Calm Calm -- 30.03 in1016.9 mb 0.00 in0.0 mm 0.00 in0.0 mm 0.00 in0.0 mm
08:52 AM 62.6°F17.0°C 62.6°F17.0°C 100% 3.2 mph SSW5.1 kmh SSW 4.4 mph7.1 kmh 30.06 in1017.9 mb 0.00 in0.0 mm 0.00 in0.0 mm 0.00 in0.0 mm
08:53 AM 75.4°F24.1°C 73.2°F22.9°C 93% Calm Calm 4.0 mph6.4 kmh 30.03 in1016.9 mb 0.00 in0.0 mm 0.00 in0.0 mm 0.00 in0.0 mm
08:57 AM 62.4°F16.9°C 62.4°F16.9°C 100% 2.9 mph SSW4.7 kmh SSW 4.0 mph6.4 kmh 30.06 in1017.9 mb 0.00 in0.0 mm 0.00 in0.0 mm 0.00 in0.0 mm
09:00 AM 76.1°F24.5°C 73.5°F23.1°C 92% 2.3 mph SSE3.7 kmh SSE 3.2 mph5.1 kmh 30.03 in1016.9 mb 0.00 in0.0 mm 0.00 in0.0 mm 0.00 in0.0 mm
09:05 AM 76.5°F24.7°C 73.9°F23.3°C 92% Calm Calm 3.2 mph5.1 kmh 30.03 in1016.9 mb 0.00 in0.0 mm 0.00 in0.0 mm 0.00 in0.0 mm
09:11 AM 77.0°F25.0°C 74.0°F23.3°C 91% Calm Calm 1.8 mph2.9 kmh 30.03 in1016.9 mb 0.00 in0.0 mm 0.00 in0.0 mm 0.00 in0.0 mm
09:16 AM 78.0°F25.6°C 75.0°F23.9°C 91% Calm Calm 3.2 mph5.1 kmh 30.03 in1016.9 mb 0.00 in0.0 mm 0.00 in0.0 mm 0.00 in0.0 mm
09:21 AM 79.4°F26.3°C 76.1°F24.5°C 90% Calm Calm 3.2 mph5.1 kmh 30.03 in1016.9 mb 0.00 in0.0 mm 0.00 in0.0 mm 0.00 in0.0 mm
09:26 AM 80.8°F27.1°C 76.4°F24.7°C 87% 1.8 mph SSE2.9 kmh SSE 2.2 mph3.5 kmh 30.03 in1016.9 mb 0.00 in0.0 mm 0.00 in0.0 mm 0.00 in0.0 mm
09:31 AM 82.3°F27.9°C 76.9°F24.9°C 84% Calm Calm 2.2 mph3.5 kmh 30.03 in1016.9 mb 0.00 in0.0 mm 0.00 in0.0 mm 0.00 in0.0 mm
09:36 AM 83.3°F28.5°C 77.6°F25.3°C 83% 1.9 mph SSE3.1 kmh SSE 2.2 mph3.5 kmh 30.03 in1016.9 mb 0.00 in0.0 mm 0.00 in0.0 mm 0.00 in0.0 mm
09:42 AM 84.0°F28.9°C 76.4°F24.7°C 78% 2.1 mph SSE3.4 kmh SSE 2.6 mph4.2 kmh 30.03 in1016.9 mb 0.00 in0.0 mm 0.00 in0.0 mm 0.00 in0.0 mm
09:47 AM 85.0°F29.4°C 77.0°F25.0°C 77% 1.8 mph SSE2.9 kmh SSE 2.6 mph4.2 kmh 30.03 in1016.9 mb 0.00 in0.0 mm 0.00 in0.0 mm 0.00 in0.0 mm
09:52 AM 85.9°F29.9°C 75.4°F24.1°C 71% 2.2 mph E3.5 kmh E 2.2 mph3.5 kmh 30.03 in1016.9 mb 0.00 in0.0 mm 0.00 in0.0 mm 0.00 in0.0 mm
09:57 AM 87.1°F30.6°C 77.5°F25.3°C 73% 2.2 mph S3.5 kmh S 2.6 mph4.2 kmh 30.03 in1016.9 mb 0.00 in0.0 mm 0.00 in0.0 mm 0.00 in0.0 mm
10:02 AM 87.1°F30.6°C 76.6°F24.8°C 71% Calm Calm 4.0 mph6.4 kmh 30.03 in1016.9 mb 0.00 in0.0 mm 0.00 in0.0 mm 0.00 in0.0 mm
10:07 AM 87.8°F31.0°C 76.8°F24.9°C 70% 2.5 mph SSE4.0 kmh SSE 4.0 mph6.4 kmh 30.03 in1016.9 mb 0.00 in0.0 mm 0.00 in0.0 mm 0.00 in0.0 mm
10:12 AM 88.3°F31.3°C 76.9°F24.9°C 69% 1.8 mph SSW2.9 kmh SSW 4.0 mph6.4 kmh 30.03 in1016.9 mb 0.00 in0.0 mm 0.00 in0.0 mm 0.00 in0.0 mm
10:17 AM 88.9°F31.6°C 75.7°F24.3°C 65% Calm Calm 3.2 mph5.1 kmh 30.03 in1016.9 mb 0.00 in0.0 mm 0.00 in0.0 mm 0.00 in0.0 mm
10:22 AM 89.1°F31.7°C 75.4°F24.1°C 64% 2.3 mph S3.7 kmh S 5.0 mph8.0 kmh 30.03 in1016.9 mb 0.00 in0.0 mm 0.00 in0.0 mm 0.00 in0.0 mm
10:28 AM 89.8°F32.1°C 75.1°F23.9°C 62% 3.2 mph SW5.1 kmh SW 5.0 mph8.0 kmh 30.03 in1016.9 mb 0.00 in0.0 mm 0.00 in0.0 mm 0.00 in0.0 mm
10:32 AM 90.2°F32.3°C 75.4°F24.1°C 62% 3.3 mph ENE5.3 kmh ENE 5.0 mph8.0 kmh 30.03 in1016.9 mb 0.00 in0.0 mm 0.00 in0.0 mm 0.00 in0.0 mm
10:38 AM 90.3°F32.4°C 75.1°F23.9°C 61% 2.6 mph W4.2 kmh W 5.0 mph8.0 kmh 30.03 in1016.9 mb 0.00 in0.0 mm 0.00 in0.0 mm 0.00 in0.0 mm
10:44 AM 91.2°F32.9°C 75.4°F24.1°C 59% 3.5 mph S5.6 kmh S 4.0 mph6.4 kmh 30.03 in1016.9 mb 0.00 in0.0 mm 0.00 in0.0 mm 0.00 in0.0 mm
10:49 AM 91.7°F33.2°C 74.8°F23.8°C 57% 3.4 mph SW5.5 kmh SW 5.0 mph8.0 kmh 30.03 in1016.9 mb 0.00 in0.0 mm 0.00 in0.0 mm 0.00 in0.0 mm
10:52 AM 62.4°F16.9°C 62.4°F16.9°C 100% 3.2 mph SW5.1 kmh SW 10.8 mph17.4 kmh 30.06 in1017.9 mb 0.00 in0.0 mm 0.00 in0.0 mm 0.00 in0.0 mm
10:55 AM 92.3°F33.5°C 75.4°F24.1°C 57% 3.2 mph SSW5.1 kmh SSW 5.0 mph8.0 kmh 30.03 in1016.9 mb 0.00 in0.0 mm 0.00 in0.0 mm 0.00 in0.0 mm
10:59 AM 62.4°F16.9°C 62.4°F16.9°C 100% 2.9 mph S4.7 kmh S 5.8 mph9.3 kmh 30.09 in1019.0 mb 0.00 in0.0 mm 0.00 in0.0 mm 0.00 in0.0 mm
11:00 AM 92.5°F33.6°C 75.1°F23.9°C 56% 2.7 mph S4.3 kmh S 4.4 mph7.1 kmh 30.03 in1016.9 mb 0.00 in0.0 mm 0.00 in0.0 mm 0.00 in0.0 mm
11:05 AM 92.7°F33.7°C 73.6°F23.1°C 53% 2.7 mph SSW4.3 kmh SSW 4.0 mph6.4 kmh 30.03 in1016.9 mb 0.00 in0.0 mm 0.00 in0.0 mm 0.00 in0.0 mm
11:10 AM 93.8°F34.3°C 73.9°F23.3°C 52% 3.5 mph WSW5.6 kmh WSW 4.4 mph7.1 kmh 30.03 in1016.9 mb 0.00 in0.0 mm 0.00 in0.0 mm 0.00 in0.0 mm
11:16 AM 93.2°F34.0°C 73.4°F23.0°C 52% 4.4 mph SW7.1 kmh SW 7.2 mph11.6 kmh 30.03 in1016.9 mb 0.00 in0.0 mm 0.00 in0.0 mm 0.00 in0.0 mm
11:21 AM 93.4°F34.1°C 73.0°F22.8°C 51% 3.6 mph SW5.8 kmh SW 8.6 mph13.8 kmh 30.03 in1016.9 mb 0.00 in0.0 mm 0.00 in0.0 mm 0.00 in0.0 mm
11:26 AM 93.2°F34.0°C 72.8°F22.7°C 51% 3.7 mph SW6.0 kmh SW 5.4 mph8.7 kmh 30.03 in1016.9 mb 0.00 in0.0 mm 0.00 in0.0 mm 0.00 in0.0 mm
11:28 AM 62.4°F16.9°C 62.4°F16.9°C 100% 3.6 mph S5.8 kmh S 5.8 mph9.3 kmh 30.09 in1019.0 mb 0.00 in0.0 mm 0.00 in0.0 mm 0.00 in0.0 mm
11:31 AM 62.4°F16.9°C 62.4°F16.9°C 100% 3.0 mph SSE4.8 kmh SSE 6.2 mph10.0 kmh 30.06 in1017.9 mb 0.00 in0.0 mm 0.00 in0.0 mm 0.00 in0.0 mm
11:34 AM 62.4°F16.9°C 62.4°F16.9°C 100% 3.2 mph SSW5.1 kmh SSW 5.4 mph8.7 kmh 30.06 in1017.9 mb 0.00 in0.0 mm 0.00 in0.0 mm 0.00 in0.0 mm
11:36 AM 94.6°F34.8°C 72.9°F22.7°C 49% 2.6 mph SSW4.2 kmh SSW 5.4 mph8.7 kmh 30.00 in1015.9 mb 0.00 in0.0 mm 0.00 in0.0 mm 0.00 in0.0 mm
11:39 AM 62.2°F16.8°C 62.2°F16.8°C 100% 2.8 mph SW4.5 kmh SW 4.4 mph7.1 kmh 30.09 in1019.0 mb 0.00 in0.0 mm 0.00 in0.0 mm 0.00 in0.0 mm
11:41 AM 94.0°F34.4°C 72.4°F22.4°C 49% 3.6 mph SW5.8 kmh SW 6.8 mph10.9 kmh 30.00 in1015.9 mb 0.00 in0.0 mm 0.00 in0.0 mm 0.00 in0.0 mm
11:46 AM 94.4°F34.7°C 73.4°F23.0°C 50% 3.5 mph SSW5.6 kmh SSW 6.8 mph10.9 kmh 30.03 in1016.9 mb 0.00 in0.0 mm 0.00 in0.0 mm 0.00 in0.0 mm
11:51 AM 94.4°F34.7°C 72.7°F22.6°C 49% 2.2 mph SW3.5 kmh SW 5.0 mph8.0 kmh 30.03 in1016.9 mb 0.00 in0.0 mm 0.00 in0.0 mm 0.00 in0.0 mm
11:56 AM 62.2°F16.8°C 62.2°F16.8°C 100% 2.0 mph SSW3.2 kmh SSW 5.0 mph8.0 kmh 30.09 in1019.0 mb 0.00 in0.0 mm 0.00 in0.0 mm 0.00 in0.0 mm
12:01 PM 95.5°F35.3°C 73.1°F22.8°C 48% 2.2 mph SE3.5 kmh SE 5.0 mph8.0 kmh 30.00 in1015.9 mb 0.00 in0.0 mm 0.00 in0.0 mm 0.00 in0.0 mm
12:06 PM 62.2°F16.8°C 62.2°F16.8°C 100% 2.5 mph SSW4.0 kmh SSW 4.4 mph7.1 kmh 30.09 in1019.0 mb 0.00 in0.0 mm 0.00 in0.0 mm 0.00 in0.0 mm
12:11 PM 95.3°F35.2°C 71.6°F22.0°C 46% 2.3 mph S3.7 kmh S 6.2 mph10.0 kmh 30.00 in1015.9 mb 0.00 in0.0 mm 0.00 in0.0 mm 0.00 in0.0 mm
12:14 PM 62.2°F16.8°C 62.2°F16.8°C 100% 2.7 mph SW4.3 kmh SW 4.4 mph7.1 kmh 30.09 in1019.0 mb 0.00 in0.0 mm 0.00 in0.0 mm 0.00 in0.0 mm
12:17 PM 95.5°F35.3°C 71.1°F21.7°C 45% 3.4 mph S5.5 kmh S 6.2 mph10.0 kmh 30.00 in1015.9 mb 0.00 in0.0 mm 0.00 in0.0 mm 0.00 in0.0 mm
12:19 PM 62.2°F16.8°C 62.2°F16.8°C 100% 3.5 mph SW5.6 kmh SW 5.0 mph8.0 kmh 30.09 in1019.0 mb 0.00 in0.0 mm 0.00 in0.0 mm 0.00 in0.0 mm
12:22 PM 95.8°F35.4°C 72.0°F22.2°C 46% 3.3 mph SSW5.3 kmh SSW 6.2 mph10.0 kmh 30.00 in1015.9 mb 0.00 in0.0 mm 0.00 in0.0 mm 0.00 in0.0 mm
12:27 PM 95.3°F35.2°C 71.6°F22.0°C 46% 3.9 mph WSW6.3 kmh WSW 6.2 mph10.0 kmh 30.00 in1015.9 mb 0.00 in0.0 mm 0.00 in0.0 mm 0.00 in0.0 mm
12:32 PM 62.2°F16.8°C 62.2°F16.8°C 100% 2.1 mph S3.4 kmh S 5.0 mph8.0 kmh 30.09 in1019.0 mb 0.00 in0.0 mm 0.00 in0.0 mm 0.00 in0.0 mm
12:39 PM 95.1°F35.1°C 72.7°F22.6°C 48% 4.0 mph WSW6.4 kmh WSW 5.4 mph8.7 kmh 30.00 in1015.9 mb 0.00 in0.0 mm 0.00 in0.0 mm 0.00 in0.0 mm
12:44 PM 95.3°F35.2°C 70.2°F21.2°C 44% 4.0 mph S6.4 kmh S 7.2 mph11.6 kmh 30.00 in1015.9 mb 0.00 in0.0 mm 0.00 in0.0 mm 0.00 in0.0 mm
12:49 PM 95.7°F35.4°C 71.9°F22.2°C 46% 3.6 mph S5.8 kmh S 7.2 mph11.6 kmh 30.03 in1016.9 mb 0.00 in0.0 mm 0.00 in0.0 mm 0.00 in0.0 mm
12:54 PM 95.3°F35.2°C 70.2°F21.2°C 44% 3.8 mph NW6.1 kmh NW 7.2 mph11.6 kmh 30.03 in1016.9 mb 0.00 in0.0 mm 0.00 in0.0 mm 0.00 in0.0 mm
12:59 PM 95.5°F35.3°C 70.4°F21.3°C 44% 4.3 mph ENE6.9 kmh ENE 8.0 mph12.9 kmh 30.03 in1016.9 mb 0.00 in0.0 mm 0.00 in0.0 mm 0.00 in0.0 mm
01:04 PM 95.9°F35.5°C 72.2°F22.3°C 46% 3.3 mph SSE5.3 kmh SSE 8.0 mph12.9 kmh 30.00 in1015.9 mb 0.00 in0.0 mm 0.00 in0.0 mm 0.00 in0.0 mm
01:09 PM 95.5°F35.3°C 71.8°F22.1°C 46% 4.1 mph SW6.6 kmh SW 7.6 mph12.2 kmh 30.00 in1015.9 mb 0.00 in0.0 mm 0.00 in0.0 mm 0.00 in0.0 mm
01:14 PM 96.3°F35.7°C 71.9°F22.2°C 45% 3.2 mph SSW5.1 kmh SSW 7.2 mph11.6 kmh 30.00 in1015.9 mb 0.00 in0.0 mm 0.00 in0.0 mm 0.00 in0.0 mm
01:20 PM 95.9°F35.5°C 71.5°F21.9°C 45% 3.6 mph WSW5.8 kmh WSW 6.8 mph10.9 kmh 30.00 in1015.9 mb 0.00 in0.0 mm 0.00 in0.0 mm 0.00 in0.0 mm
01:25 PM 96.3°F35.7°C 71.9°F22.2°C 45% 3.6 mph WSW5.8 kmh WSW 6.8 mph10.9 kmh 30.00 in1015.9 mb 0.00 in0.0 mm 0.00 in0.0 mm 0.00 in0.0 mm
01:26 PM 62.1°F16.7°C 62.1°F16.7°C 100% 2.2 mph NE3.5 kmh NE 2.2 mph3.5 kmh 30.09 in1019.0 mb 0.00 in0.0 mm 0.00 in0.0 mm 0.00 in0.0 mm
01:29 PM 62.1°F16.7°C 62.1°F16.7°C 100% 2.8 mph NE4.5 kmh NE 4.0 mph6.4 kmh 30.12 in1020.0 mb 0.00 in0.0 mm 0.00 in0.0 mm 0.00 in0.0 mm
01:30 PM 94.2°F34.6°C 71.3°F21.8°C 47% 4.1 mph S6.6 kmh S 7.2 mph11.6 kmh 30.00 in1015.9 mb 0.00 in0.0 mm 0.00 in0.0 mm 0.00 in0.0 mm
01:35 PM 94.2°F34.6°C 71.3°F21.8°C 47% 5.1 mph SW8.2 kmh SW 7.2 mph11.6 kmh 30.00 in1015.9 mb 0.00 in0.0 mm 0.00 in0.0 mm 0.00 in0.0 mm
01:37 PM 62.2°F16.8°C 62.2°F16.8°C 100% 1.8 mph WNW2.9 kmh WNW 4.4 mph7.1 kmh 30.12 in1020.0 mb 0.00 in0.0 mm 0.00 in0.0 mm 0.00 in0.0 mm
01:40 PM 95.1°F35.1°C 72.7°F22.6°C 48% 2.3 mph SSE3.7 kmh SSE 7.2 mph11.6 kmh 30.00 in1015.9 mb 0.00 in0.0 mm 0.00 in0.0 mm 0.00 in0.0 mm
01:45 PM 95.5°F35.3°C 72.4°F22.4°C 47% 3.8 mph S6.1 kmh S 5.8 mph9.3 kmh 29.97 in1014.9 mb 0.00 in0.0 mm 0.00 in0.0 mm 0.00 in0.0 mm
01:51 PM 95.9°F35.5°C 71.5°F21.9°C 45% 3.8 mph SSW6.1 kmh SSW 6.2 mph10.0 kmh 29.97 in1014.9 mb 0.00 in0.0 mm 0.00 in0.0 mm 0.00 in0.0 mm
01:56 PM 97.5°F36.4°C 72.9°F22.7°C 45% 3.2 mph SSE5.1 kmh SSE 6.2 mph10.0 kmh 29.97 in1014.9 mb 0.00 in0.0 mm 0.00 in0.0 mm 0.00 in0.0 mm
02:02 PM 96.3°F35.7°C 71.2°F21.8°C 44% 4.5 mph WSW7.2 kmh WSW 7.6 mph12.2 kmh 29.94 in1013.9 mb 0.00 in0.0 mm 0.00 in0.0 mm 0.00 in0.0 mm
02:07 PM 95.8°F35.4°C 71.4°F21.9°C 45% 4.5 mph N7.2 kmh N 7.6 mph12.2 kmh 29.94 in1013.9 mb 0.00 in0.0 mm 0.00 in0.0 mm 0.00 in0.0 mm
02:12 PM 95.5°F35.3°C 70.4°F21.3°C 44% 3.1 mph ESE5.0 kmh ESE 7.6 mph12.2 kmh 29.94 in1013.9 mb 0.00 in0.0 mm 0.00 in0.0 mm 0.00 in0.0 mm
02:17 PM 94.8°F34.9°C 70.5°F21.4°C 45% 5.3 mph ESE8.5 kmh ESE 11.2 mph18.0 kmh 29.94 in1013.9 mb 0.00 in0.0 mm 0.00 in0.0 mm 0.00 in0.0 mm
02:23 PM 93.8°F34.3°C 70.2°F21.2°C 46% 3.5 mph W5.6 kmh W 11.2 mph18.0 kmh 29.94 in1013.9 mb 0.00 in0.0 mm 0.00 in0.0 mm 0.00 in0.0 mm
02:27 PM 94.9°F34.9°C 72.5°F22.5°C 48% 2.5 mph SSW4.0 kmh SSW 8.0 mph12.9 kmh 29.94 in1013.9 mb 0.00 in0.0 mm 0.00 in0.0 mm 0.00 in0.0 mm
02:33 PM 95.8°F35.4°C 71.4°F21.9°C 45% 4.6 mph S7.4 kmh S 6.2 mph10.0 kmh 29.94 in1013.9 mb 0.00 in0.0 mm 0.00 in0.0 mm 0.00 in0.0 mm
02:38 PM 95.9°F35.5°C 71.5°F21.9°C 45% 4.7 mph SW7.6 kmh SW 8.0 mph12.9 kmh 29.94 in1013.9 mb 0.00 in0.0 mm 0.00 in0.0 mm 0.00 in0.0 mm
02:43 PM 94.9°F34.9°C 71.2°F21.8°C 46% 3.7 mph S6.0 kmh S 9.8 mph15.8 kmh 29.94 in1013.9 mb 0.00 in0.0 mm 0.00 in0.0 mm 0.00 in0.0 mm
02:48 PM 96.1°F35.6°C 71.0°F21.7°C 44% 3.7 mph SW6.0 kmh SW 9.8 mph15.8 kmh 29.91 in1012.9 mb 0.00 in0.0 mm 0.00 in0.0 mm 0.00 in0.0 mm
02:54 PM 95.1°F35.1°C 70.1°F21.2°C 44% 4.9 mph WNW7.9 kmh WNW 8.6 mph13.8 kmh 29.91 in1012.9 mb 0.00 in0.0 mm 0.00 in0.0 mm 0.00 in0.0 mm
02:59 PM 95.5°F35.3°C 70.4°F21.3°C 44% 4.2 mph SSW6.8 kmh SSW 8.6 mph13.8 kmh 29.91 in1012.9 mb 0.00 in0.0 mm 0.00 in0.0 mm 0.00 in0.0 mm
03:04 PM 94.4°F34.7°C 70.1°F21.2°C 45% 3.4 mph WSW5.5 kmh WSW 7.2 mph11.6 kmh 29.91 in1012.9 mb 0.00 in0.0 mm 0.00 in0.0 mm 0.00 in0.0 mm
03:09 PM 95.3°F35.2°C 70.2°F21.2°C 44% 3.7 mph W6.0 kmh W 7.2 mph11.6 kmh 29.91 in1012.9 mb 0.00 in0.0 mm 0.00 in0.0 mm 0.00 in0.0 mm
03:14 PM 95.1°F35.1°C 70.1°F21.2°C 44% 4.9 mph W7.9 kmh W 10.8 mph17.4 kmh 29.94 in1013.9 mb 0.00 in0.0 mm 0.00 in0.0 mm 0.00 in0.0 mm
03:19 PM 95.8°F35.4°C 70.7°F21.5°C 44% 3.4 mph SSW5.5 kmh SSW 10.8 mph17.4 kmh 29.94 in1013.9 mb 0.00 in0.0 mm 0.00 in0.0 mm 0.00 in0.0 mm
03:24 PM 94.9°F34.9°C 69.9°F21.1°C 44% 6.4 mph S10.3 kmh S 10.8 mph17.4 kmh 29.94 in1013.9 mb 0.00 in0.0 mm 0.00 in0.0 mm 0.00 in0.0 mm
03:29 PM 94.4°F34.7°C 69.5°F20.8°C 44% 3.8 mph SSW6.1 kmh SSW 10.8 mph17.4 kmh 29.94 in1013.9 mb 0.00 in0.0 mm 0.00 in0.0 mm 0.00 in0.0 mm
03:35 PM 94.9°F34.9°C 70.6°F21.4°C 45% 3.2 mph SSW5.1 kmh SSW 5.4 mph8.7 kmh 29.94 in1013.9 mb 0.00 in0.0 mm 0.00 in0.0 mm 0.00 in0.0 mm
03:40 PM 95.3°F35.2°C 70.9°F21.6°C 45% 3.4 mph S5.5 kmh S 10.8 mph17.4 kmh 29.94 in1013.9 mb 0.00 in0.0 mm 0.00 in0.0 mm 0.00 in0.0 mm
03:45 PM 94.8°F34.9°C 69.8°F21.0°C 44% 4.4 mph N7.1 kmh N 10.8 mph17.4 kmh 29.91 in1012.9 mb 0.00 in0.0 mm 0.00 in0.0 mm 0.00 in0.0 mm
03:50 PM 95.3°F35.2°C 69.5°F20.8°C 43% 3.8 mph S6.1 kmh S 8.0 mph12.9 kmh 29.91 in1012.9 mb 0.00 in0.0 mm 0.00 in0.0 mm 0.00 in0.0 mm
03:55 PM 95.8°F35.4°C 70.7°F21.5°C 44% 4.1 mph S6.6 kmh S 8.0 mph12.9 kmh 29.91 in1012.9 mb 0.00 in0.0 mm 0.00 in0.0 mm 0.00 in0.0 mm
04:00 PM 95.5°F35.3°C 69.7°F20.9°C 43% 3.3 mph W5.3 kmh W 6.2 mph10.0 kmh 29.91 in1012.9 mb 0.00 in0.0 mm 0.00 in0.0 mm 0.00 in0.0 mm
04:01 PM 62.2°F16.8°C 62.2°F16.8°C 100% Calm Calm 2.6 mph4.2 kmh 30.12 in1020.0 mb 0.00 in0.0 mm 0.00 in0.0 mm 0.00 in0.0 mm
04:05 PM 95.1°F35.1°C 69.4°F20.8°C 43% 4.8 mph S7.7 kmh S 7.2 mph11.6 kmh 29.91 in1012.9 mb 0.00 in0.0 mm 0.00 in0.0 mm 0.00 in0.0 mm
04:06 PM 62.1°F16.7°C 62.1°F16.7°C 100% Calm Calm 2.2 mph3.5 kmh 30.12 in1020.0 mb 0.00 in0.0 mm 0.00 in0.0 mm 0.00 in0.0 mm
04:10 PM 94.9°F34.9°C 68.5°F20.3°C 42% 3.4 mph SW5.5 kmh SW 7.2 mph11.6 kmh 29.91 in1012.9 mb 0.00 in0.0 mm 0.00 in0.0 mm 0.00 in0.0 mm
04:15 PM 61.9°F16.6°C 61.9°F16.6°C 100% Calm Calm -- 30.09 in1019.0 mb 0.00 in0.0 mm 0.00 in0.0 mm 0.00 in0.0 mm
04:16 PM 95.1°F35.1°C 68.7°F20.4°C 42% 3.4 mph S5.5 kmh S 5.8 mph9.3 kmh 29.91 in1012.9 mb 0.00 in0.0 mm 0.00 in0.0 mm 0.00 in0.0 mm
04:21 PM 94.9°F34.9°C 69.2°F20.7°C 43% 3.8 mph SSW6.1 kmh SSW 6.2 mph10.0 kmh 29.91 in1012.9 mb 0.00 in0.0 mm 0.00 in0.0 mm 0.00 in0.0 mm
04:26 PM 94.4°F34.7°C 67.3°F19.6°C 41% 5.4 mph S8.7 kmh S 8.6 mph13.8 kmh 29.91 in1012.9 mb 0.00 in0.0 mm 0.00 in0.0 mm 0.00 in0.0 mm
04:31 PM 61.7°F16.5°C 61.7°F16.5°C 100% Calm Calm 1.8 mph2.9 kmh 30.09 in1019.0 mb 0.00 in0.0 mm 0.00 in0.0 mm 0.00 in0.0 mm
04:36 PM 94.6°F34.8°C 68.9°F20.5°C 43% 2.9 mph S4.7 kmh S 5.8 mph9.3 kmh 29.91 in1012.9 mb 0.00 in0.0 mm 0.00 in0.0 mm 0.00 in0.0 mm
04:39 PM 61.9°F16.6°C 61.9°F16.6°C 100% Calm Calm 4.0 mph6.4 kmh 30.12 in1020.0 mb 0.00 in0.0 mm 0.00 in0.0 mm 0.00 in0.0 mm
04:41 PM 94.0°F34.4°C 67.6°F19.8°C 42% 4.5 mph W7.2 kmh W 6.8 mph10.9 kmh 29.91 in1012.9 mb 0.00 in0.0 mm 0.00 in0.0 mm 0.00 in0.0 mm
04:46 PM 93.2°F34.0°C 68.3°F20.2°C 44% 4.1 mph SW6.6 kmh SW 6.8 mph10.9 kmh 29.91 in1012.9 mb 0.00 in0.0 mm 0.00 in0.0 mm 0.00 in0.0 mm
04:47 PM 61.9°F16.6°C 61.9°F16.6°C 100% Calm Calm -- 30.12 in1020.0 mb 0.00 in0.0 mm 0.00 in0.0 mm 0.00 in0.0 mm
04:50 PM 61.9°F16.6°C 61.9°F16.6°C 100% Calm Calm -- 30.12 in1020.0 mb 0.00 in0.0 mm 0.00 in0.0 mm 0.00 in0.0 mm
04:51 PM 92.5°F33.6°C 67.1°F19.5°C 43% 2.9 mph SSW4.7 kmh SSW 6.2 mph10.0 kmh 29.91 in1012.9 mb 0.00 in0.0 mm 0.00 in0.0 mm 0.00 in0.0 mm
04:55 PM 61.9°F16.6°C 61.9°F16.6°C 100% Calm Calm -- 30.12 in1020.0 mb 0.00 in0.0 mm 0.00 in0.0 mm 0.00 in0.0 mm
04:57 PM 92.1°F33.4°C 68.0°F20.0°C 45% 2.5 mph SSW4.0 kmh SSW 5.4 mph8.7 kmh 29.91 in1012.9 mb 0.00 in0.0 mm 0.00 in0.0 mm 0.00 in0.0 mm
05:02 PM 92.2°F33.4°C 68.2°F20.1°C 45% 2.3 mph SE3.7 kmh SE 5.4 mph8.7 kmh 29.91 in1012.9 mb 0.00 in0.0 mm 0.00 in0.0 mm 0.00 in0.0 mm
05:07 PM 91.7°F33.2°C 68.9°F20.5°C 47% 3.8 mph S6.1 kmh S 4.4 mph7.1 kmh 29.91 in1012.9 mb 0.00 in0.0 mm 0.00 in0.0 mm 0.00 in0.0 mm
05:12 PM 91.4°F33.0°C 68.0°F20.0°C 46% 4.1 mph SSW6.6 kmh SSW 8.6 mph13.8 kmh 29.91 in1012.9 mb 0.00 in0.0 mm 0.00 in0.0 mm 0.00 in0.0 mm
05:17 PM 91.0°F32.8°C 68.3°F20.2°C 47% 2.4 mph S3.9 kmh S 8.6 mph13.8 kmh 29.88 in1011.9 mb 0.00 in0.0 mm 0.00 in0.0 mm 0.00 in0.0 mm
05:21 PM 61.9°F16.6°C 61.9°F16.6°C 100% 1.8 mph NNW2.9 kmh NNW 4.0 mph6.4 kmh 30.12 in1020.0 mb 0.00 in0.0 mm 0.00 in0.0 mm 0.00 in0.0 mm
05:22 PM 90.3°F32.4°C 69.0°F20.6°C 49% 4.8 mph SW7.7 kmh SW 6.2 mph10.0 kmh 29.88 in1011.9 mb 0.00 in0.0 mm 0.00 in0.0 mm 0.00 in0.0 mm
05:27 PM 90.3°F32.4°C 69.6°F20.9°C 50% 3.4 mph SSW5.5 kmh SSW 7.2 mph11.6 kmh 29.88 in1011.9 mb 0.00 in0.0 mm 0.00 in0.0 mm 0.00 in0.0 mm
05:32 PM 61.9°F16.6°C 61.9°F16.6°C 100% 2.4 mph NW3.9 kmh NW 4.0 mph6.4 kmh 30.12 in1020.0 mb 0.00 in0.0 mm 0.00 in0.0 mm 0.00 in0.0 mm
05:37 PM 89.8°F32.1°C 69.7°F20.9°C 51% 3.7 mph SSE6.0 kmh SSE 5.4 mph8.7 kmh 29.88 in1011.9 mb 0.00 in0.0 mm 0.00 in0.0 mm 0.00 in0.0 mm
05:42 PM 89.7°F32.1°C 70.2°F21.2°C 52% 2.5 mph SSE4.0 kmh SSE 5.0 mph8.0 kmh 29.88 in1011.9 mb 0.00 in0.0 mm 0.00 in0.0 mm 0.00 in0.0 mm
05:44 PM 61.9°F16.6°C 61.9°F16.6°C 100% 1.8 mph NW2.9 kmh NW 1.8 mph2.9 kmh 30.12 in1020.0 mb 0.00 in0.0 mm 0.00 in0.0 mm 0.00 in0.0 mm
05:48 PM 89.7°F32.1°C 71.3°F21.8°C 54% 2.3 mph SSE3.7 kmh SSE 5.0 mph8.0 kmh 29.85 in1010.8 mb 0.00 in0.0 mm 0.00 in0.0 mm 0.00 in0.0 mm
05:53 PM 89.5°F31.9°C 71.1°F21.7°C 54% 2.8 mph E4.5 kmh E 7.2 mph11.6 kmh 29.85 in1010.8 mb 0.00 in0.0 mm 0.00 in0.0 mm 0.00 in0.0 mm
05:55 PM 61.7°F16.5°C 61.7°F16.5°C 100% Calm Calm -- 30.12 in1020.0 mb 0.00 in0.0 mm 0.00 in0.0 mm 0.00 in0.0 mm
05:58 PM 89.1°F31.7°C 70.2°F21.2°C 53% 3.7 mph SW6.0 kmh SW 7.2 mph11.6 kmh 29.85 in1010.8 mb 0.00 in0.0 mm 0.00 in0.0 mm 0.00 in0.0 mm
06:03 PM 88.9°F31.6°C 70.0°F21.1°C 53% 3.5 mph SSW5.6 kmh SSW 5.4 mph8.7 kmh 29.88 in1011.9 mb 0.00 in0.0 mm 0.00 in0.0 mm 0.00 in0.0 mm
06:07 PM 61.7°F16.5°C 61.7°F16.5°C 100% 2.2 mph NW3.5 kmh NW 2.2 mph3.5 kmh 30.12 in1020.0 mb 0.00 in0.0 mm 0.00 in0.0 mm 0.00 in0.0 mm
06:10 PM 88.6°F31.4°C 70.3°F21.3°C 54% 2.3 mph SE3.7 kmh SE 6.2 mph10.0 kmh 29.88 in1011.9 mb 0.00 in0.0 mm 0.00 in0.0 mm 0.00 in0.0 mm
06:15 PM 88.8°F31.6°C 71.0°F21.7°C 55% 2.2 mph SE3.5 kmh SE 6.2 mph10.0 kmh 29.91 in1012.9 mb 0.00 in0.0 mm 0.00 in0.0 mm 0.00 in0.0 mm
06:16 PM 61.5°F16.4°C 61.5°F16.4°C 100% Calm Calm 2.2 mph3.5 kmh 30.12 in1020.0 mb 0.00 in0.0 mm 0.00 in0.0 mm 0.00 in0.0 mm
06:20 PM 88.4°F31.3°C 70.7°F21.5°C 55% 3.4 mph S5.5 kmh S 5.4 mph8.7 kmh 29.91 in1012.9 mb 0.00 in0.0 mm 0.00 in0.0 mm 0.00 in0.0 mm
06:25 PM 88.1°F31.2°C 71.4°F21.9°C 57% 1.8 mph SSE2.9 kmh SSE 5.4 mph8.7 kmh 29.91 in1012.9 mb 0.00 in0.0 mm 0.00 in0.0 mm 0.00 in0.0 mm
06:30 PM 88.1°F31.2°C 70.9°F21.6°C 56% 3.1 mph S5.0 kmh S 4.0 mph6.4 kmh 29.91 in1012.9 mb 0.00 in0.0 mm 0.00 in0.0 mm 0.00 in0.0 mm
06:33 PM 61.5°F16.4°C 61.5°F16.4°C 100% Calm Calm -- 30.12 in1020.0 mb 0.00 in0.0 mm 0.00 in0.0 mm 0.00 in0.0 mm
06:35 PM 87.8°F31.0°C 71.1°F21.7°C 57% 3.6 mph W5.8 kmh W 6.2 mph10.0 kmh 29.91 in1012.9 mb 0.00 in0.0 mm 0.00 in0.0 mm 0.00 in0.0 mm
06:40 PM 87.4°F30.8°C 70.8°F21.6°C 57% 4.5 mph NW7.2 kmh NW 6.2 mph10.0 kmh 29.91 in1012.9 mb 0.00 in0.0 mm 0.00 in0.0 mm 0.00 in0.0 mm
06:41 PM 61.3°F16.3°C 61.3°F16.3°C 100% Calm Calm -- 30.12 in1020.0 mb 0.00 in0.0 mm 0.00 in0.0 mm 0.00 in0.0 mm
06:45 PM 86.7°F30.4°C 70.7°F21.5°C 58% 3.6 mph SSE5.8 kmh SSE 5.8 mph9.3 kmh 29.88 in1011.9 mb 0.00 in0.0 mm 0.00 in0.0 mm 0.00 in0.0 mm
06:50 PM 86.1°F30.1°C 70.1°F21.2°C 58% 2.2 mph SW3.5 kmh SW 5.8 mph9.3 kmh 29.88 in1011.9 mb 0.00 in0.0 mm 0.00 in0.0 mm 0.00 in0.0 mm
06:51 PM 61.5°F16.4°C 61.5°F16.4°C 100% Calm Calm -- 30.12 in1020.0 mb 0.00 in0.0 mm 0.00 in0.0 mm 0.00 in0.0 mm
06:55 PM 85.9°F29.9°C 69.9°F21.1°C 58% 2.6 mph WSW4.2 kmh WSW 3.2 mph5.1 kmh 29.88 in1011.9 mb 0.00 in0.0 mm 0.00 in0.0 mm 0.00 in0.0 mm
07:00 PM 61.3°F16.3°C 61.3°F16.3°C 100% Calm Calm -- 30.12 in1020.0 mb 0.00 in0.0 mm 0.00 in0.0 mm 0.00 in0.0 mm
07:05 PM 85.9°F29.9°C 70.9°F21.6°C 61% 4.4 mph SSW7.1 kmh SSW 4.4 mph7.1 kmh 29.88 in1011.9 mb 0.00 in0.0 mm 0.00 in0.0 mm 0.00 in0.0 mm
07:10 PM 85.9°F29.9°C 70.9°F21.6°C 61% Calm Calm 4.4 mph7.1 kmh 29.88 in1011.9 mb 0.00 in0.0 mm 0.00 in0.0 mm 0.00 in0.0 mm
07:14 PM 61.2°F16.2°C 61.2°F16.2°C 100% Calm Calm -- 30.12 in1020.0 mb 0.00 in0.0 mm 0.00 in0.0 mm 0.00 in0.0 mm
07:15 PM 85.9°F29.9°C 71.4°F21.9°C 62% Calm Calm -- 29.88 in1011.9 mb 0.00 in0.0 mm 0.00 in0.0 mm 0.00 in0.0 mm
07:16 PM 61.2°F16.2°C 61.2°F16.2°C 100% Calm Calm -- 30.12 in1020.0 mb 0.00 in0.0 mm 0.00 in0.0 mm 0.00 in0.0 mm
07:21 PM 85.7°F29.8°C 71.7°F22.1°C 63% Calm Calm -- 29.88 in1011.9 mb 0.00 in0.0 mm 0.00 in0.0 mm 0.00 in0.0 mm
07:26 PM 85.4°F29.7°C 71.9°F22.2°C 64% Calm Calm -- 29.88 in1011.9 mb 0.00 in0.0 mm 0.00 in0.0 mm 0.00 in0.0 mm
07:31 PM 85.0°F29.4°C 71.5°F21.9°C 64% Calm Calm -- 29.88 in1011.9 mb 0.00 in0.0 mm 0.00 in0.0 mm 0.00 in0.0 mm
07:36 PM 84.8°F29.3°C 71.8°F22.1°C 65% Calm Calm -- 29.88 in1011.9 mb 0.00 in0.0 mm 0.00 in0.0 mm 0.00 in0.0 mm
07:42 PM 84.7°F29.3°C 71.6°F22.0°C 65% Calm Calm -- 29.88 in1011.9 mb 0.00 in0.0 mm 0.00 in0.0 mm 0.00 in0.0 mm
07:47 PM 84.6°F29.2°C 72.0°F22.2°C 66% Calm Calm -- 29.88 in1011.9 mb 0.00 in0.0 mm 0.00 in0.0 mm 0.00 in0.0 mm
07:53 PM 83.8°F28.8°C 71.7°F22.1°C 67% Calm Calm -- 29.88 in1011.9 mb 0.00 in0.0 mm 0.00 in0.0 mm 0.00 in0.0 mm
07:54 PM 61.2°F16.2°C 61.2°F16.2°C 100% Calm Calm -- 30.12 in1020.0 mb 0.00 in0.0 mm 0.00 in0.0 mm 0.00 in0.0 mm
07:58 PM 83.7°F28.7°C 71.6°F22.0°C 67% Calm Calm -- 29.88 in1011.9 mb 0.00 in0.0 mm 0.00 in0.0 mm 0.00 in0.0 mm
08:03 PM 83.1°F28.4°C 71.5°F21.9°C 68% Calm Calm -- 29.88 in1011.9 mb 0.00 in0.0 mm 0.00 in0.0 mm 0.00 in0.0 mm
08:08 PM 82.7°F28.2°C 71.5°F21.9°C 69% Calm Calm -- 29.88 in1011.9 mb 0.00 in0.0 mm 0.00 in0.0 mm 0.00 in0.0 mm
08:10 PM 61.2°F16.2°C 61.2°F16.2°C 100% Calm Calm -- 30.12 in1020.0 mb 0.00 in0.0 mm 0.00 in0.0 mm 0.00 in0.0 mm
08:14 PM 82.3°F27.9°C 72.4°F22.4°C 72% 3.3 mph SSE5.3 kmh SSE 4.0 mph6.4 kmh 29.88 in1011.9 mb 0.00 in0.0 mm 0.00 in0.0 mm 0.00 in0.0 mm
08:19 PM 81.8°F27.7°C 72.7°F22.6°C 74% 2.3 mph SSE3.7 kmh SSE 4.0 mph6.4 kmh 29.88 in1011.9 mb 0.00 in0.0 mm 0.00 in0.0 mm 0.00 in0.0 mm
08:24 PM 81.4°F27.4°C 72.7°F22.6°C 75% 1.8 mph SSE2.9 kmh SSE 3.2 mph5.1 kmh 29.88 in1011.9 mb 0.00 in0.0 mm 0.00 in0.0 mm 0.00 in0.0 mm
08:29 PM 81.2°F27.3°C 72.6°F22.6°C 75% 3.3 mph SSE5.3 kmh SSE 4.0 mph6.4 kmh 29.88 in1011.9 mb 0.00 in0.0 mm 0.00 in0.0 mm 0.00 in0.0 mm
08:35 PM 81.1°F27.3°C 72.5°F22.5°C 75% 2.2 mph S3.5 kmh S 6.8 mph10.9 kmh 29.88 in1011.9 mb 0.00 in0.0 mm 0.00 in0.0 mm 0.00 in0.0 mm
08:40 PM 80.8°F27.1°C 72.1°F22.3°C 75% Calm Calm 6.8 mph10.9 kmh 29.88 in1011.9 mb 0.00 in0.0 mm 0.00 in0.0 mm 0.00 in0.0 mm
08:46 PM 80.6°F27.0°C 71.9°F22.2°C 75% Calm Calm 5.8 mph9.3 kmh 29.88 in1011.9 mb 0.00 in0.0 mm 0.00 in0.0 mm 0.00 in0.0 mm
08:51 PM 80.3°F26.8°C 72.0°F22.2°C 76% 5.6 mph SE9.0 kmh SE 7.2 mph11.6 kmh 29.88 in1011.9 mb 0.00 in0.0 mm 0.00 in0.0 mm 0.00 in0.0 mm
08:56 PM 79.9°F26.6°C 71.7°F22.1°C 76% Calm Calm 7.2 mph11.6 kmh 29.88 in1011.9 mb 0.00 in0.0 mm 0.00 in0.0 mm 0.00 in0.0 mm
09:01 PM 79.9°F26.6°C 71.7°F22.1°C 76% Calm Calm 4.0 mph6.4 kmh 29.88 in1011.9 mb 0.00 in0.0 mm 0.00 in0.0 mm 0.00 in0.0 mm
09:06 PM 79.7°F26.5°C 71.5°F21.9°C 76% Calm Calm -- 29.88 in1011.9 mb 0.00 in0.0 mm 0.00 in0.0 mm 0.00 in0.0 mm
09:12 PM 79.5°F26.4°C 71.3°F21.8°C 76% Calm Calm -- 29.88 in1011.9 mb 0.00 in0.0 mm 0.00 in0.0 mm 0.00 in0.0 mm
09:17 PM 79.4°F26.3°C 71.6°F22.0°C 77% Calm Calm -- 29.88 in1011.9 mb 0.00 in0.0 mm 0.00 in0.0 mm 0.00 in0.0 mm
09:22 PM 79.2°F26.2°C 71.4°F21.9°C 77% Calm Calm -- 29.88 in1011.9 mb 0.00 in0.0 mm 0.00 in0.0 mm 0.00 in0.0 mm
09:28 PM 79.2°F26.2°C 71.4°F21.9°C 77% Calm Calm 1.8 mph2.9 kmh 29.88 in1011.9 mb 0.00 in0.0 mm 0.00 in0.0 mm 0.00 in0.0 mm
09:33 PM 79.2°F26.2°C 71.4°F21.9°C 77% Calm Calm 1.8 mph2.9 kmh 29.91 in1012.9 mb 0.00 in0.0 mm 0.00 in0.0 mm 0.00 in0.0 mm
09:38 PM 78.9°F26.1°C 71.8°F22.1°C 79% Calm Calm -- 29.91 in1012.9 mb 0.00 in0.0 mm 0.00 in0.0 mm 0.00 in0.0 mm
09:43 PM 78.9°F26.1°C 71.8°F22.1°C 79% Calm Calm -- 29.91 in1012.9 mb 0.00 in0.0 mm 0.00 in0.0 mm 0.00 in0.0 mm
09:48 PM 78.4°F25.8°C 71.3°F21.8°C 79% 1.8 mph E2.9 kmh E 1.8 mph2.9 kmh 29.88 in1011.9 mb 0.00 in0.0 mm 0.00 in0.0 mm 0.00 in0.0 mm
09:53 PM 78.0°F25.6°C 71.3°F21.8°C 80% Calm Calm 1.8 mph2.9 kmh 29.88 in1011.9 mb 0.00 in0.0 mm 0.00 in0.0 mm 0.00 in0.0 mm
09:58 PM 77.8°F25.4°C 71.1°F21.7°C 80% Calm Calm -- 29.88 in1011.9 mb 0.00 in0.0 mm 0.00 in0.0 mm 0.00 in0.0 mm
10:03 PM 77.8°F25.4°C 71.5°F21.9°C 81% Calm Calm -- 29.91 in1012.9 mb 0.00 in0.0 mm 0.00 in0.0 mm 0.00 in0.0 mm
10:08 PM 77.7°F25.4°C 71.4°F21.9°C 81% Calm Calm -- 29.91 in1012.9 mb 0.00 in0.0 mm 0.00 in0.0 mm 0.00 in0.0 mm
10:13 PM 77.5°F25.3°C 71.2°F21.8°C 81% Calm Calm -- 29.91 in1012.9 mb 0.00 in0.0 mm 0.00 in0.0 mm 0.00 in0.0 mm
10:18 PM 77.5°F25.3°C 71.9°F22.2°C 83% Calm Calm -- 29.91 in1012.9 mb 0.00 in0.0 mm 0.00 in0.0 mm 0.00 in0.0 mm
10:23 PM 77.3°F25.2°C 71.7°F22.1°C 83% Calm Calm -- 29.91 in1012.9 mb 0.00 in0.0 mm 0.00 in0.0 mm 0.00 in0.0 mm
10:29 PM 77.2°F25.1°C 71.9°F22.2°C 84% Calm Calm -- 29.91 in1012.9 mb 0.00 in0.0 mm 0.00 in0.0 mm 0.00 in0.0 mm
10:34 PM 77.0°F25.0°C 71.7°F22.1°C 84% Calm Calm -- 29.91 in1012.9 mb 0.00 in0.0 mm 0.00 in0.0 mm 0.00 in0.0 mm
10:39 PM 77.0°F25.0°C 72.0°F22.2°C 85% Calm Calm -- 29.91 in1012.9 mb 0.00 in0.0 mm 0.00 in0.0 mm 0.00 in0.0 mm
10:44 PM 76.9°F24.9°C 71.9°F22.2°C 85% Calm Calm -- 29.91 in1012.9 mb 0.00 in0.0 mm 0.00 in0.0 mm 0.00 in0.0 mm
10:51 PM 76.5°F24.7°C 71.9°F22.2°C 86% Calm Calm -- 29.91 in1012.9 mb 0.00 in0.0 mm 0.00 in0.0 mm 0.00 in0.0 mm
10:56 PM 76.3°F24.6°C 72.0°F22.2°C 87% Calm Calm -- 29.91 in1012.9 mb 0.00 in0.0 mm 0.00 in0.0 mm 0.00 in0.0 mm
11:00 PM 61.3°F16.3°C 61.3°F16.3°C 100% Calm Calm -- 30.09 in1019.0 mb 0.00 in0.0 mm 0.00 in0.0 mm 0.00 in0.0 mm
11:01 PM 76.1°F24.5°C 71.9°F22.2°C 87% Calm Calm -- 29.91 in1012.9 mb 0.00 in0.0 mm 0.00 in0.0 mm 0.00 in0.0 mm
11:06 PM 76.1°F24.5°C 71.9°F22.2°C 87% Calm Calm -- 29.91 in1012.9 mb 0.00 in0.0 mm 0.00 in0.0 mm 0.00 in0.0 mm
11:11 PM 76.1°F24.5°C 72.2°F22.3°C 88% Calm Calm -- 29.91 in1012.9 mb 0.00 in0.0 mm 0.00 in0.0 mm 0.00 in0.0 mm
11:13 PM 61.3°F16.3°C 61.3°F16.3°C 100% Calm Calm -- 30.09 in1019.0 mb 0.00 in0.0 mm 0.00 in0.0 mm 0.00 in0.0 mm
11:16 PM 76.0°F24.4°C 71.8°F22.1°C 87% Calm Calm -- 29.91 in1012.9 mb 0.00 in0.0 mm 0.00 in0.0 mm 0.00 in0.0 mm
11:17 PM 61.3°F16.3°C 61.3°F16.3°C 100% Calm Calm -- 30.09 in1019.0 mb 0.00 in0.0 mm 0.00 in0.0 mm 0.00 in0.0 mm
11:22 PM 76.0°F24.4°C 71.8°F22.1°C 87% Calm Calm -- 29.91 in1012.9 mb 0.00 in0.0 mm 0.00 in0.0 mm 0.00 in0.0 mm
11:23 PM 61.3°F16.3°C 61.3°F16.3°C 100% Calm Calm -- 30.12 in1020.0 mb 0.00 in0.0 mm 0.00 in0.0 mm 0.00 in0.0 mm
11:27 PM 76.0°F24.4°C 72.1°F22.3°C 88% Calm Calm -- 29.91 in1012.9 mb 0.00 in0.0 mm 0.00 in0.0 mm 0.00 in0.0 mm
11:30 PM 61.3°F16.3°C 61.3°F16.3°C 100% Calm Calm 3.2 mph5.1 kmh 30.12 in1020.0 mb 0.00 in0.0 mm 0.00 in0.0 mm 0.00 in0.0 mm
11:32 PM 76.0°F24.4°C 71.8°F22.1°C 87% Calm Calm -- 29.91 in1012.9 mb 0.00 in0.0 mm 0.00 in0.0 mm 0.00 in0.0 mm
11:37 PM 76.0°F24.4°C 71.8°F22.1°C 87% Calm Calm -- 29.91 in1012.9 mb 0.00 in0.0 mm 0.00 in0.0 mm 0.00 in0.0 mm
11:40 PM 61.2°F16.2°C 61.2°F16.2°C 100% Calm Calm 2.6 mph4.2 kmh 30.12 in1020.0 mb 0.00 in0.0 mm 0.00 in0.0 mm 0.00 in0.0 mm
11:42 PM 76.0°F24.4°C 71.8°F22.1°C 87% Calm Calm -- 29.91 in1012.9 mb 0.00 in0.0 mm 0.00 in0.0 mm 0.00 in0.0 mm
11:47 PM 76.0°F24.4°C 72.1°F22.3°C 88% Calm Calm -- 29.91 in1012.9 mb 0.00 in0.0 mm 0.00 in0.0 mm 0.00 in0.0 mm
11:54 PM 76.1°F24.5°C 71.9°F22.2°C 87% Calm Calm -- 29.91 in1012.9 mb 0.00 in0.0 mm 0.00 in0.0 mm 0.00 in0.0 mm
11:57 PM 61.2°F16.2°C 61.2°F16.2°C 100% Calm Calm -- 30.12 in1020.0 mb 0.00 in0.0 mm 0.00 in0.0 mm 0.00 in0.0 mm
11:59 PM 76.1°F24.5°C 71.9°F22.2°C 87% Calm Calm -- 29.91 in1012.9 mb 0.00 in0.0 mm 0.00 in0.0 mm 0.00 in0.0 mm